Time;durP1;ratioP1;P1;durP2;ratioP2;P2;SDS_P1;SDS_P2;PMS_P1;PMS_P2;Temp;Humidity;BMP_temperature;BMP_pressure;BME280_temperature;BME280_humidity;BME280_pressure;Samples;Min_cycle;Max_cycle;Signal;HPM_P1;HPM_P2
2023/02/16 00:01:15;;;;;;;8.53;7.03;;;22.10;80.80;;;;;;1803844;78;21147;-85
2023/02/16 00:03:46;;;;;;;12.30;8.55;;;22.10;81.80;;;;;;1799320;79;21225;-85
2023/02/16 00:06:18;;;;;;;7.30;6.10;;;22.10;80.80;;;;;;1808127;79;21210;-84
2023/02/16 00:08:51;;;;;;;12.37;9.48;;;22.10;80.70;;;;;;1808806;78;21139;-85
2023/02/16 00:14:22;;;;;;;17.35;10.80;;;22.10;81.60;;;;;;1766711;79;21143;-86
2023/02/16 00:16:53;;;;;;;14.35;9.60;;;22.10;80.60;;;;;;1803443;78;21131;-85
2023/02/16 00:19:29;;;;;;;15.80;10.32;;;22.10;80.60;;;;;;1807765;78;21156;-86
2023/02/16 00:22:01;;;;;;;9.95;7.33;;;22.20;80.40;;;;;;1800974;79;21139;-85
2023/02/16 00:24:32;;;;;;;11.63;7.85;;;22.20;80.20;;;;;;1808405;79;21580;-86
2023/02/16 00:27:03;;;;;;;10.25;7.28;;;22.20;80.00;;;;;;1794319;78;21196;-86
2023/02/16 00:29:36;;;;;;;10.25;6.50;;;22.20;79.90;;;;;;1813493;78;21202;-85
2023/02/16 00:32:08;;;;;;;10.53;7.00;;;22.20;79.70;;;;;;1801301;77;21615;-86
2023/02/16 00:34:41;;;;;;;10.85;7.17;;;22.20;79.60;;;;;;1786407;79;21707;-86
2023/02/16 00:37:14;;;;;;;9.53;6.28;;;22.20;79.50;;;;;;1773691;79;21167;-85
2023/02/16 00:39:45;;;;;;;10.58;7.15;;;22.20;79.50;;;;;;1788730;79;21170;-85
2023/02/16 00:42:18;;;;;;;11.70;8.28;;;22.20;79.60;;;;;;1806574;79;21427;-85
2023/02/16 00:44:54;;;;;;;10.93;7.40;;;22.30;79.70;;;;;;1809292;78;21163;-86
2023/02/16 00:47:33;;;;;;;13.60;8.43;;;22.30;79.60;;;;;;1799337;79;21249;-86
2023/02/16 00:50:18;;;;;;;12.03;8.55;;;22.30;79.60;;;;;;1807032;78;21171;-85
2023/02/16 00:52:50;;;;;;;11.18;6.87;;;22.30;79.60;;;;;;1824428;78;21201;-85
2023/02/16 00:55:23;;;;;;;12.43;7.33;;;22.40;79.00;;;;;;1786377;79;21179;-82
2023/02/16 00:58:17;;;;;;;11.05;8.03;;;22.40;79.10;;;;;;1805237;77;21273;-74
2023/02/16 01:01:12;;;;;;;11.85;8.33;;;22.40;79.10;;;;;;1797919;77;21370;-75
2023/02/16 01:03:45;;;;;;;14.40;7.87;;;22.40;79.40;;;;;;1789075;77;21269;-74
2023/02/16 01:12:24;;;;;;;10.38;6.92;;;22.50;79.10;;;;;;1799225;77;21627;-75
2023/02/16 01:14:56;;;;;;;8.78;6.72;;;22.50;78.90;;;;;;1782709;78;21115;-76
2023/02/16 01:17:27;;;;;;;9.70;6.62;;;22.60;78.70;;;;;;1836264;76;21165;-73
2023/02/16 01:19:58;;;;;;;11.55;6.25;;;22.60;78.50;;;;;;1833261;76;21143;-74
2023/02/16 01:26:49;;;;;;;8.55;6.10;;;22.60;78.50;;;;;;1834450;76;21233;-73
2023/02/16 01:29:21;;;;;;;11.00;6.42;;;22.60;78.50;;;;;;1836821;76;21185;-74
2023/02/16 01:32:13;;;;;;;8.25;5.60;;;22.70;78.40;;;;;;1832235;76;21529;-74
2023/02/16 01:34:45;;;;;;;10.88;5.90;;;22.70;78.10;;;;;;1771078;78;21228;-74
2023/02/16 01:37:17;;;;;;;9.38;5.78;;;22.70;78.40;;;;;;1779283;79;21214;-74
2023/02/16 01:39:49;;;;;;;9.68;6.40;;;22.80;78.50;;;;;;1785067;80;21198;-74
2023/02/16 01:42:47;;;;;;;10.00;5.95;;;22.90;78.40;;;;;;1779155;79;21194;-74
2023/02/16 01:45:20;;;;;;;12.23;6.80;;;23.00;78.00;;;;;;1677382;84;22006;-73
2023/02/16 01:47:54;;;;;;;13.25;7.60;;;23.00;77.90;;;;;;1771359;78;21221;-74
2023/02/16 01:50:30;;;;;;;9.53;5.80;;;23.10;77.60;;;;;;1738412;80;21234;-75
2023/02/16 01:53:10;;;;;;;9.55;5.53;;;23.20;77.50;;;;;;1747989;80;21180;-74
2023/02/16 01:55:47;;;;;;;7.67;5.60;;;23.30;77.20;;;;;;1716284;82;21390;-75
2023/02/16 01:58:43;;;;;;;8.95;4.87;;;23.40;76.50;;;;;;1786691;79;21553;-84
2023/02/16 02:07:28;;;;;;;7.75;5.05;;;23.60;76.00;;;;;;1765428;79;21185;-84
2023/02/16 02:10:20;;;;;;;7.35;5.30;;;23.70;75.70;;;;;;1730488;79;21184;-87
2023/02/16 02:12:53;;;;;;;8.45;6.03;;;23.80;75.70;;;;;;1712772;82;21219;-84
2023/02/16 02:15:29;;;;;;;10.05;5.58;;;23.80;74.60;;;;;;1732586;80;21148;-86
2023/02/16 02:18:01;;;;;;;8.68;5.55;;;23.90;75.60;;;;;;1738988;80;21127;-85
2023/02/16 02:23:45;;;;;;;9.55;4.55;;;24.00;73.90;;;;;;1758339;81;21063;-86
2023/02/16 02:26:37;;;;;;;6.20;4.83;;;24.00;73.30;;;;;;1756766;81;21210;-84
2023/02/16 02:29:26;;;;;;;6.00;4.28;;;24.10;73.50;;;;;;1738994;81;21193;-83
2023/02/16 02:32:06;;;;;;;9.68;3.77;;;24.20;72.90;;;;;;1766985;79;21136;-86
2023/02/16 02:35:02;;;;;;;7.30;4.40;;;24.20;72.70;;;;;;1772938;80;21108;-91
2023/02/16 02:37:47;;;;;;;7.35;4.80;;;24.30;72.70;;;;;;1762769;79;21618;-76
2023/02/16 02:40:20;;;;;;;;;;;24.40;72.80;;;;;;1763655;80;21174;-77
2023/02/16 02:43:20;;;;;;;7.47;4.50;;;24.40;71.90;;;;;;1779343;79;20375;-76
2023/02/16 02:46:13;;;;;;;6.25;3.95;;;24.50;71.90;;;;;;1783570;79;21135;-74
2023/02/16 02:48:47;;;;;;;;;;;24.60;71.60;;;;;;1799268;79;21587;-74
2023/02/16 02:51:32;;;;;;;9.85;4.78;;;24.60;71.30;;;;;;1780666;80;20185;-74
2023/02/16 03:00:46;;;;;;;6.37;3.65;;;24.80;70.80;;;;;;1735642;81;21226;-74
2023/02/16 03:03:32;;;;;;;9.85;4.05;;;24.80;71.00;;;;;;1782563;79;21232;-72
2023/02/16 03:06:17;;;;;;;8.73;4.20;;;24.80;70.80;;;;;;1758503;81;21134;-74
2023/02/16 03:08:51;;;;;;;6.92;3.70;;;24.80;70.30;;;;;;1777460;80;21642;-74
2023/02/16 03:14:20;;;;;;;4.75;3.52;;;25.00;70.20;;;;;;1777978;79;21409;-75
2023/02/16 03:31:10;;;;;;;7.30;4.03;;;25.50;68.40;;;;;;1779470;80;21274;-74
2023/02/16 03:33:42;;;;;;;9.00;4.37;;;25.60;68.60;;;;;;1777975;78;21155;-74
2023/02/16 03:36:13;;;;;;;7.53;4.53;;;25.70;67.90;;;;;;1775926;80;21214;-75
2023/02/16 03:38:45;;;;;;;6.37;4.25;;;25.80;67.60;;;;;;1779500;79;21405;-75
2023/02/16 03:41:16;;;;;;;8.73;4.40;;;25.90;67.30;;;;;;1779156;80;21139;-74
2023/02/16 03:43:50;;;;;;;8.63;5.05;;;25.90;66.60;;;;;;1794421;79;21138;-75
2023/02/16 03:46:21;;;;;;;11.25;5.05;;;26.10;66.60;;;;;;1780403;79;21217;-75
2023/02/16 03:48:53;;;;;;;8.65;4.72;;;26.20;66.90;;;;;;1776280;79;21268;-75
2023/02/16 03:51:24;;;;;;;7.67;4.62;;;26.30;65.90;;;;;;1777867;79;21179;-74
2023/02/16 03:53:56;;;;;;;6.70;4.42;;;26.30;66.00;;;;;;1794515;79;21250;-76
2023/02/16 03:56:28;;;;;;;7.00;4.78;;;26.40;65.10;;;;;;1785078;79;21192;-76
2023/02/16 03:59:03;;;;;;;7.87;4.92;;;26.40;65.30;;;;;;1776239;79;21270;-76
2023/02/16 04:01:35;;;;;;;7.97;4.70;;;26.40;65.50;;;;;;1747342;80;21273;-75
2023/02/16 04:04:07;;;;;;;8.03;4.85;;;26.50;65.60;;;;;;1786080;79;21135;-74
2023/02/16 04:06:39;;;;;;;21.42;6.80;;;26.60;64.40;;;;;;1777876;79;21181;-75
2023/02/16 04:09:10;;;;;;;8.33;5.00;;;26.60;64.90;;;;;;1775944;79;21151;-75
2023/02/16 04:14:31;;;;;;;12.95;4.80;;;26.70;64.10;;;;;;1777548;79;21147;-73
2023/02/16 04:17:02;;;;;;;7.22;4.97;;;26.80;64.50;;;;;;1756329;80;21221;-75
2023/02/16 04:19:34;;;;;;;9.48;4.80;;;27.00;63.60;;;;;;1781371;80;21195;-73
2023/02/16 04:22:05;;;;;;;11.00;4.72;;;27.10;63.50;;;;;;1770528;80;21611;-75
2023/02/16 04:24:37;;;;;;;8.30;4.83;;;27.20;63.10;;;;;;1765668;80;21170;-75
2023/02/16 04:27:10;;;;;;;6.37;4.92;;;27.20;63.80;;;;;;1773054;79;21115;-76
2023/02/16 04:29:41;;;;;;;9.65;5.25;;;27.20;63.60;;;;;;1777728;79;21242;-74
2023/02/16 04:32:12;;;;;;;6.70;5.00;;;27.30;62.90;;;;;;1763023;80;21512;-76
2023/02/16 04:34:44;;;;;;;7.42;4.97;;;27.30;62.80;;;;;;1782890;78;21203;-76
2023/02/16 04:37:16;;;;;;;6.33;4.72;;;27.30;63.00;;;;;;1811578;77;21241;-75
2023/02/16 04:39:47;;;;;;;8.75;4.42;;;27.20;62.90;;;;;;1826622;77;21190;-75
2023/02/16 04:42:18;;;;;;;7.08;4.80;;;27.30;63.70;;;;;;1773825;80;21663;-75
2023/02/16 04:44:49;;;;;;;8.95;4.97;;;27.30;63.80;;;;;;1762523;80;21231;-74
2023/02/16 04:47:24;;;;;;;9.75;4.90;;;27.30;63.00;;;;;;1809050;79;21245;-76
2023/02/16 04:49:53;;;;;;;9.78;5.03;;;27.30;62.40;;;;;;1717747;81;21224;-75
2023/02/16 04:52:25;;;;;;;7.92;5.08;;;27.20;62.70;;;;;;1766205;80;21191;-75
2023/02/16 04:54:56;;;;;;;7.50;5.35;;;27.10;63.40;;;;;;1760932;80;21903;-77
2023/02/16 04:57:29;;;;;;;6.75;5.08;;;27.10;63.00;;;;;;1757310;80;21282;-76
2023/02/16 05:00:00;;;;;;;11.28;5.35;;;27.00;63.30;;;;;;1753602;80;21453;-75
2023/02/16 05:02:32;;;;;;;6.50;4.92;;;27.00;63.90;;;;;;1775986;79;21142;-75
2023/02/16 05:05:03;;;;;;;8.45;5.53;;;26.90;63.50;;;;;;1758829;80;21214;-76
2023/02/16 05:07:35;;;;;;;7.60;5.12;;;26.80;63.60;;;;;;1743874;80;21159;-75
2023/02/16 05:10:07;;;;;;;6.83;5.47;;;26.80;63.80;;;;;;1758863;80;21280;-75
2023/02/16 05:15:29;;;;;;;7.55;5.22;;;26.80;64.40;;;;;;1766465;79;21657;-75
2023/02/16 05:18:01;;;;;;;7.53;4.90;;;26.90;64.50;;;;;;1763339;80;21679;-74
2023/02/16 05:23:21;;;;;;;5.20;4.70;;;27.40;62.60;;;;;;1774544;79;21159;-75
2023/02/16 05:25:52;;;;;;;7.75;5.53;;;27.70;61.80;;;;;;1738554;80;21134;-77
2023/02/16 05:28:23;;;;;;;6.50;5.15;;;27.90;61.10;;;;;;1749615;80;22078;-75
2023/02/16 05:33:46;;;;;;;6.67;5.08;;;28.30;60.40;;;;;;1753237;79;21193;-76
2023/02/16 05:36:18;;;;;;;7.05;5.08;;;28.50;59.80;;;;;;1747003;80;21211;-75
2023/02/16 05:38:49;;;;;;;8.25;5.40;;;28.50;59.20;;;;;;1770355;80;21402;-75
2023/02/16 05:41:23;;;;;;;6.37;4.95;;;28.50;59.40;;;;;;1765440;80;21619;-76
2023/02/16 05:43:57;;;;;;;5.97;5.17;;;28.50;59.40;;;;;;1761610;80;21796;-77
2023/02/16 05:46:31;;;;;;;7.40;4.83;;;28.50;59.50;;;;;;1751022;80;21192;-76
2023/02/16 05:49:03;;;;;;;7.10;5.10;;;28.40;59.50;;;;;;1755616;80;21628;-75
2023/02/16 05:51:35;;;;;;;7.08;5.15;;;28.40;60.00;;;;;;1759121;80;21202;-76
2023/02/16 05:54:07;;;;;;;7.72;5.30;;;28.30;59.70;;;;;;1758254;80;21781;-74
2023/02/16 05:56:40;;;;;;;8.15;4.95;;;28.30;59.40;;;;;;1757493;80;21508;-74
2023/02/16 05:59:11;;;;;;;9.58;5.03;;;28.30;59.50;;;;;;1756764;80;21252;-76
2023/02/16 06:01:45;;;;;;;7.90;5.25;;;28.20;59.90;;;;;;1700565;82;21714;-78
2023/02/16 06:04:18;;;;;;;7.67;5.30;;;28.20;59.60;;;;;;1694228;82;21248;-76
2023/02/16 06:06:49;;;;;;;6.97;5.10;;;28.20;59.90;;;;;;1689880;82;21143;-75
2023/02/16 06:09:21;;;;;;;6.17;5.28;;;28.30;59.90;;;;;;1732832;81;21340;-75
2023/02/16 06:11:52;;;;;;;7.17;5.25;;;28.40;60.30;;;;;;1699625;82;21136;-73
2023/02/16 06:14:23;;;;;;;10.70;4.90;;;28.50;59.20;;;;;;1729439;81;21226;-77
2023/02/16 06:16:56;;;;;;;8.55;5.40;;;28.60;58.70;;;;;;1738120;81;21731;-73
2023/02/16 06:19:28;;;;;;;8.20;6.45;;;28.80;58.40;;;;;;1736242;81;21696;-73
2023/02/16 06:21:59;;;;;;;7.58;4.87;;;28.90;58.50;;;;;;1775958;78;21236;-73
2023/02/16 06:24:31;;;;;;;8.70;5.47;;;29.00;58.10;;;;;;1737185;81;21217;-74
2023/02/16 06:27:02;;;;;;;8.38;5.47;;;29.00;57.70;;;;;;1760048;80;21141;-74
2023/02/16 06:29:33;;;;;;;8.33;5.80;;;29.10;57.70;;;;;;1756420;78;21196;-77
2023/02/16 06:32:10;;;;;;;7.30;5.17;;;29.20;57.50;;;;;;1758999;79;21251;-75
2023/02/16 06:34:47;;;;;;;5.87;5.08;;;29.20;57.30;;;;;;1813705;77;21143;-74
2023/02/16 06:37:15;;;;;;;8.38;5.97;;;29.20;57.30;;;;;;1815443;77;21270;-74
2023/02/16 06:39:46;;;;;;;8.03;5.92;;;29.30;56.90;;;;;;1813492;77;22105;-75
2023/02/16 06:42:17;;;;;;;8.48;6.12;;;29.30;57.20;;;;;;1818853;77;21272;-74
2023/02/16 06:44:48;;;;;;;8.05;5.65;;;29.30;56.80;;;;;;1815661;77;21258;-76
2023/02/16 06:47:20;;;;;;;8.15;5.42;;;29.30;57.30;;;;;;1809378;77;21726;-74
2023/02/16 06:49:52;;;;;;;11.53;5.70;;;29.40;57.10;;;;;;1757503;79;21423;-75
2023/02/16 06:52:30;;;;;;;9.88;5.78;;;29.40;56.40;;;;;;1772370;79;21472;-73
2023/02/16 06:55:02;;;;;;;9.58;5.78;;;29.50;56.70;;;;;;1823665;77;21134;-76
2023/02/16 06:57:33;;;;;;;9.65;5.80;;;29.50;56.10;;;;;;1814151;77;21185;-75
2023/02/16 07:00:06;;;;;;;7.87;5.47;;;29.60;55.70;;;;;;1812301;77;21239;-74
2023/02/16 07:02:42;;;;;;;12.37;5.83;;;29.70;55.40;;;;;;1763621;79;21220;-75
2023/02/16 07:05:14;;;;;;;10.25;5.78;;;29.70;55.30;;;;;;1758002;79;21677;-75
2023/02/16 07:07:45;;;;;;;9.05;5.28;;;29.70;55.10;;;;;;1752179;79;21277;-75
2023/02/16 07:10:17;;;;;;;7.37;6.05;;;29.70;55.10;;;;;;1764153;79;22472;-75
2023/02/16 07:12:48;;;;;;;7.65;5.53;;;29.80;55.50;;;;;;1775921;79;21126;-74
2023/02/16 07:15:20;;;;;;;8.08;5.70;;;29.80;54.70;;;;;;1761687;79;22231;-75
2023/02/16 07:17:51;;;;;;;6.45;5.80;;;29.80;54.40;;;;;;1741847;80;21533;-75
2023/02/16 07:20:23;;;;;;;8.70;6.05;;;29.80;54.40;;;;;;1754911;79;21228;-75
2023/02/16 07:22:54;;;;;;;7.78;6.40;;;29.80;54.80;;;;;;1760780;79;21300;-76
2023/02/16 07:25:25;;;;;;;8.98;6.30;;;29.80;54.60;;;;;;1822469;77;21249;-76
2023/02/16 07:27:56;;;;;;;8.90;5.83;;;29.70;55.10;;;;;;1797843;77;21146;-76
2023/02/16 07:30:28;;;;;;;8.73;6.37;;;29.60;55.40;;;;;;1807969;77;21487;-75
2023/02/16 07:33:00;;;;;;;7.03;5.83;;;29.60;54.90;;;;;;1801990;77;21223;-76
2023/02/16 07:35:31;;;;;;;9.03;6.42;;;29.60;54.70;;;;;;1804874;77;21218;-76
2023/02/16 07:38:03;;;;;;;6.53;5.80;;;29.60;55.00;;;;;;1807315;77;21190;-75
2023/02/16 07:40:35;;;;;;;8.23;6.37;;;29.50;54.90;;;;;;1813663;77;21167;-75
2023/02/16 07:43:07;;;;;;;9.60;6.03;;;29.50;55.50;;;;;;1805027;77;21646;-75
2023/02/16 07:45:41;;;;;;;8.85;5.53;;;29.40;55.30;;;;;;1810105;77;21294;-73
2023/02/16 07:48:13;;;;;;;8.33;5.45;;;29.40;55.50;;;;;;1790733;77;21206;-75
2023/02/16 07:50:45;;;;;;;8.20;5.50;;;29.40;56.00;;;;;;1817878;77;21280;-75
2023/02/16 07:53:16;;;;;;;8.95;5.90;;;29.40;55.50;;;;;;1804754;77;21901;-75
2023/02/16 07:55:47;;;;;;;8.78;6.55;;;29.40;55.50;;;;;;1818372;77;21151;-76
2023/02/16 07:58:28;;;;;;;7.25;6.50;;;29.30;55.50;;;;;;1798978;77;21194;-75
2023/02/16 08:01:07;;;;;;;10.88;6.60;;;29.30;55.30;;;;;;1802275;77;21155;-75
2023/02/16 08:03:39;;;;;;;9.55;6.50;;;29.20;55.60;;;;;;1790250;79;21139;-75
2023/02/16 08:06:29;;;;;;;10.20;6.22;;;29.20;55.80;;;;;;1797677;77;21135;-76
2023/02/16 08:09:04;;;;;;;9.88;6.92;;;29.10;55.60;;;;;;1725674;81;21115;-76
2023/02/16 08:11:37;;;;;;;;;;;29.10;56.10;;;;;;1784634;79;21147;-76
2023/02/16 08:14:08;;;;;;;14.03;7.30;;;29.00;56.50;;;;;;1781367;79;20522;-74
2023/02/16 08:16:40;;;;;;;8.18;6.67;;;29.10;56.10;;;;;;1780472;79;21582;-75
2023/02/16 08:19:12;;;;;;;11.45;6.60;;;29.10;56.30;;;;;;1784240;79;21509;-75
2023/02/16 08:21:48;;;;;;;9.95;7.03;;;29.00;56.30;;;;;;1777927;79;22024;-76
2023/02/16 08:24:16;;;;;;;8.48;6.22;;;29.00;57.30;;;;;;1792108;79;21520;-76
2023/02/16 08:26:52;;;;;;;8.68;5.80;;;29.10;56.50;;;;;;1785021;78;21288;-75
2023/02/16 08:29:24;;;;;;;8.43;6.43;;;29.10;56.30;;;;;;1778550;79;21231;-74
2023/02/16 08:31:55;;;;;;;7.30;6.60;;;29.10;56.40;;;;;;1774880;79;21466;-74
2023/02/16 08:34:26;;;;;;;8.95;7.15;;;29.10;56.50;;;;;;1769519;79;21204;-76
2023/02/16 08:36:58;;;;;;;8.58;5.50;;;29.10;56.60;;;;;;1785303;80;21633;-76
2023/02/16 08:39:31;;;;;;;8.88;6.70;;;29.20;56.50;;;;;;1782539;80;21158;-76
2023/02/16 08:42:03;;;;;;;7.47;5.67;;;29.10;56.30;;;;;;1716605;82;21820;-76
2023/02/16 08:44:35;;;;;;;8.50;6.15;;;29.10;56.40;;;;;;1716285;82;21167;-75
2023/02/16 08:47:08;;;;;;;9.05;6.40;;;29.10;56.50;;;;;;1721624;81;21220;-77
2023/02/16 08:49:47;;;;;;;8.48;5.90;;;29.00;56.40;;;;;;1742037;80;21687;-76
2023/02/16 08:52:20;;;;;;;9.05;6.40;;;29.00;56.30;;;;;;1746446;81;21230;-77
2023/02/16 08:54:53;;;;;;;11.25;6.42;;;28.90;56.60;;;;;;1721978;82;21207;-82
2023/02/16 08:57:26;;;;;;;14.00;7.10;;;28.90;56.50;;;;;;1717557;82;21236;-77
2023/02/16 09:02:59;;;;;;;8.70;6.75;;;28.90;56.90;;;;;;1738539;80;21281;-78
2023/02/16 09:05:31;;;;;;;7.70;6.30;;;29.00;56.60;;;;;;1740129;80;21830;-76
2023/02/16 09:08:02;;;;;;;10.03;6.40;;;29.00;56.70;;;;;;1746146;80;21166;-76
2023/02/16 09:10:33;;;;;;;8.33;6.25;;;29.10;56.70;;;;;;1741749;80;21268;-77
2023/02/16 09:13:05;;;;;;;7.28;6.05;;;29.10;56.50;;;;;;1744401;80;21216;-74
2023/02/16 09:15:36;;;;;;;11.63;7.50;;;29.20;56.40;;;;;;1754308;80;21706;-76
2023/02/16 09:18:08;;;;;;;8.00;6.62;;;29.10;56.00;;;;;;1792438;78;21154;-75
2023/02/16 09:20:42;;;;;;;10.80;6.62;;;29.10;56.30;;;;;;1786099;79;21928;-77
2023/02/16 09:23:14;;;;;;;9.80;7.17;;;29.10;56.30;;;;;;1787440;79;21723;-76
2023/02/16 09:25:47;;;;;;;9.18;7.05;;;29.10;56.50;;;;;;1786997;79;21288;-75
2023/02/16 09:28:19;;;;;;;10.72;7.83;;;29.10;56.20;;;;;;1783979;79;21157;-75
2023/02/16 09:30:53;;;;;;;8.38;7.08;;;29.10;56.20;;;;;;1784057;79;22019;-77
2023/02/16 09:33:26;;;;;;;11.65;7.60;;;29.20;56.20;;;;;;1784105;79;21200;-78
2023/02/16 09:35:59;;;;;;;9.33;7.25;;;29.20;56.40;;;;;;1786721;79;21385;-78
2023/02/16 09:38:34;;;;;;;10.30;7.53;;;29.20;56.50;;;;;;1783257;79;21956;-76
2023/02/16 09:41:18;;;;;;;9.48;7.22;;;29.20;56.60;;;;;;1777770;79;21451;-77
2023/02/16 09:43:53;;;;;;;9.80;6.87;;;29.10;56.30;;;;;;1770184;79;21154;-77
2023/02/16 09:46:27;;;;;;;8.28;6.90;;;29.10;56.40;;;;;;1785948;79;21145;-77
2023/02/16 09:49:19;;;;;;;10.32;7.42;;;29.10;56.50;;;;;;1786004;79;21158;-77
2023/02/16 09:51:52;;;;;;;13.35;7.55;;;29.10;56.80;;;;;;1800420;78;21626;-76
2023/02/16 09:54:44;;;;;;;10.75;7.30;;;29.00;56.90;;;;;;1793829;78;21855;-76
2023/02/16 09:57:41;;;;;;;9.65;6.62;;;28.90;57.20;;;;;;1792775;79;21248;-76
2023/02/16 10:00:30;;;;;;;8.23;7.30;;;28.90;57.20;;;;;;1754353;80;21186;-79
2023/02/16 10:03:19;;;;;;;10.43;7.25;;;28.80;56.50;;;;;;1753629;80;21934;-74
2023/02/16 10:06:06;;;;;;;9.53;7.35;;;28.80;56.60;;;;;;1778304;79;21876;-75
2023/02/16 10:08:44;;;;;;;12.37;7.53;;;28.80;56.70;;;;;;1788419;79;21150;-75
2023/02/16 10:11:40;;;;;;;13.18;8.48;;;28.80;56.90;;;;;;1780559;79;21221;-75
2023/02/16 10:14:29;;;;;;;9.85;8.38;;;28.80;57.30;;;;;;1731666;79;21211;-74
2023/02/16 10:17:27;;;;;;;17.57;8.08;;;28.80;57.30;;;;;;1770022;79;21415;-75
2023/02/16 10:20:00;;;;;;;9.68;7.47;;;28.80;57.60;;;;;;1779548;79;21226;-75
2023/02/16 10:22:38;;;;;;;11.88;7.80;;;28.70;57.50;;;;;;1779220;78;21152;-77
2023/02/16 10:25:48;;;;;;;10.78;7.87;;;28.60;57.40;;;;;;1732020;80;21648;-77
2023/02/16 10:28:35;;;;;;;11.00;8.05;;;28.60;57.60;;;;;;1684581;83;21131;-76
2023/02/16 10:31:06;;;;;;;14.95;8.73;;;28.60;58.10;;;;;;1686225;83;21472;-74
2023/02/16 10:33:49;;;;;;;11.97;8.85;;;28.60;57.70;;;;;;1753259;80;21673;-76
2023/02/16 10:36:46;;;;;;;10.80;8.13;;;28.50;57.80;;;;;;1752056;80;21269;-76
2023/02/16 10:39:35;;;;;;;12.00;8.73;;;28.50;57.90;;;;;;1753051;80;21207;-75
2023/02/16 10:42:15;;;;;;;13.80;8.63;;;28.50;57.50;;;;;;1755141;80;21205;-73
2023/02/16 10:45:04;;;;;;;10.30;8.50;;;28.40;57.70;;;;;;1752561;80;21115;-74
2023/02/16 10:47:38;;;;;;;12.68;8.65;;;28.40;57.80;;;;;;1758245;80;21224;-74
2023/02/16 10:50:24;;;;;;;10.72;8.53;;;28.40;57.90;;;;;;1753119;80;21175;-76
2023/02/16 10:52:58;;;;;;;11.70;9.00;;;28.30;58.00;;;;;;1754926;80;21132;-75
2023/02/16 10:55:29;;;;;;;12.23;8.45;;;28.30;58.30;;;;;;1753434;80;21155;-77
2023/02/16 10:58:01;;;;;;;10.10;8.80;;;28.30;58.40;;;;;;1738324;80;21917;-76
2023/02/16 11:00:53;;;;;;;25.55;9.58;;;28.20;58.50;;;;;;1749047;80;21210;-75
2023/02/16 11:03:27;;;;;;;11.60;9.75;;;28.20;58.60;;;;;;1754471;80;21174;-77
2023/02/16 11:06:24;;;;;;;13.13;10.88;;;28.20;58.60;;;;;;1757604;80;21202;-78
2023/02/16 11:09:03;;;;;;;13.22;10.20;;;28.20;58.80;;;;;;1758631;80;21090;-78
2023/02/16 11:11:39;;;;;;;14.00;9.40;;;28.10;58.80;;;;;;1751762;80;21202;-76
2023/02/16 11:14:28;;;;;;;13.90;9.43;;;28.10;58.80;;;;;;1714629;82;21255;-76
2023/02/16 11:17:11;;;;;;;20.27;11.83;;;28.10;58.90;;;;;;1720782;81;21697;-77
2023/02/16 11:19:51;;;;;;;15.23;10.13;;;28.10;59.00;;;;;;1707727;80;21335;-88
2023/02/16 11:22:33;;;;;;;13.90;10.15;;;28.00;59.00;;;;;;1731803;81;22047;-88
2023/02/16 11:25:23;;;;;;;16.85;10.15;;;28.00;59.20;;;;;;1707460;83;21184;-90
2023/02/16 11:27:56;;;;;;;13.55;9.90;;;27.90;59.90;;;;;;1751065;79;21194;-90
2023/02/16 11:30:36;;;;;;;14.30;10.48;;;27.90;59.20;;;;;;1785327;79;21163;-88
2023/02/16 11:33:25;;;;;;;14.93;9.53;;;27.90;59.20;;;;;;1798624;78;21221;-88
2023/02/16 11:35:57;;;;;;;16.40;10.00;;;27.90;59.50;;;;;;1751471;80;21265;-88
2023/02/16 11:38:33;;;;;;;15.10;9.78;;;27.80;59.50;;;;;;1727057;80;21154;-89
2023/02/16 11:41:25;;;;;;;12.80;10.30;;;27.80;59.60;;;;;;1708620;84;21149;-89
2023/02/16 11:43:57;;;;;;;11.90;10.00;;;27.80;59.80;;;;;;1794943;79;21197;-90
2023/02/16 11:46:30;;;;;;;15.85;10.72;;;27.70;59.90;;;;;;1796990;79;21532;-89
2023/02/16 11:49:21;;;;;;;16.20;10.72;;;27.70;60.10;;;;;;1801639;79;21111;-89
2023/02/16 11:51:52;;;;;;;15.88;11.35;;;27.70;60.20;;;;;;1795309;79;21157;-89
2023/02/16 11:57:42;;;;;;;16.75;11.70;;;27.60;60.80;;;;;;1708626;82;21358;-90
2023/02/16 12:00:29;;;;;;;14.03;10.80;;;27.60;61.00;;;;;;1702485;82;21230;-89
2023/02/16 12:03:12;;;;;;;16.77;11.18;;;27.60;61.20;;;;;;1710728;82;21779;-90
2023/02/16 12:05:44;;;;;;;16.55;11.12;;;27.50;61.20;;;;;;1701835;82;22069;-88
2023/02/16 12:08:34;;;;;;;19.77;11.93;;;27.50;61.30;;;;;;1688181;80;21987;-87
2023/02/16 12:11:16;;;;;;;16.55;12.95;;;27.50;61.50;;;;;;1788019;79;21268;-86
2023/02/16 12:13:59;;;;;;;17.23;13.48;;;27.50;61.90;;;;;;1790384;79;21136;-88
2023/02/16 12:16:54;;;;;;;23.57;14.43;;;27.40;61.90;;;;;;1794665;78;21143;-86
2023/02/16 12:19:37;;;;;;;23.20;14.00;;;27.40;62.10;;;;;;1795449;78;21147;-87
2023/02/16 12:22:19;;;;;;;23.52;14.28;;;27.40;62.40;;;;;;1798661;79;21430;-87
2023/02/16 12:25:21;;;;;;;18.98;13.75;;;27.40;62.80;;;;;;1720000;82;21221;-88
2023/02/16 12:28:22;;;;;;;22.60;15.50;;;27.30;63.00;;;;;;1786256;79;21175;-86
2023/02/16 12:31:31;;;;;;;;;;;;;;;;;;;;;
2023/02/16 12:34:13;;;;;;;23.83;16.32;;;27.20;63.10;;;;;;1787227;79;21519;-87
2023/02/16 12:40:16;;;;;;;21.10;15.45;;;27.10;63.00;;;;;;1794614;79;21108;-87
2023/02/16 12:43:23;;;;;;;23.32;16.50;;;27.10;62.90;;;;;;1793049;79;21657;-87
2023/02/16 12:46:15;;;;;;;22.25;15.90;;;27.10;63.30;;;;;;1791643;79;21264;-87
2023/02/16 12:49:13;;;;;;;22.22;16.48;;;27.10;62.90;;;;;;1779524;79;21033;-87
2023/02/16 12:51:52;;;;;;;26.42;16.67;;;27.10;63.00;;;;;;1798711;78;21413;-86
2023/02/16 12:54:26;;;;;;;19.07;15.65;;;27.10;63.00;;;;;;1793876;79;21131;-86
2023/02/16 12:57:09;;;;;;;24.23;15.70;;;27.10;63.00;;;;;;1794228;79;21154;-87
2023/02/16 12:59:48;;;;;;;19.77;15.13;;;27.10;63.00;;;;;;1790438;79;21154;-86
2023/02/16 13:02:22;;;;;;;22.20;15.55;;;27.10;63.00;;;;;;1754273;79;21087;-88
2023/02/16 13:05:20;;;;;;;19.27;15.30;;;27.10;63.10;;;;;;1798892;79;21145;-87
2023/02/16 13:07:59;;;;;;;18.50;15.45;;;27.10;63.00;;;;;;1798700;78;21159;-86
2023/02/16 13:10:35;;;;;;;23.92;15.68;;;27.00;63.00;;;;;;1799010;79;21182;-86
2023/02/16 13:13:11;;;;;;;18.42;15.30;;;27.00;63.30;;;;;;1800577;78;21108;-87
2023/02/16 13:15:59;;;;;;;19.10;14.55;;;27.00;63.40;;;;;;1801227;79;21618;-86
2023/02/16 13:18:39;;;;;;;23.55;15.10;;;27.00;63.40;;;;;;1795413;79;21144;-87
2023/02/16 13:21:38;;;;;;;17.82;14.10;;;26.90;63.70;;;;;;1791521;79;21120;-86
2023/02/16 13:24:25;;;;;;;19.50;13.90;;;26.90;63.80;;;;;;1792784;79;21248;-87
2023/02/16 13:26:58;;;;;;;19.62;15.10;;;26.80;63.80;;;;;;1793695;78;21201;-87
2023/02/16 13:29:38;;;;;;;19.35;14.63;;;26.80;64.10;;;;;;1788425;78;21153;-87
2023/02/16 13:32:37;;;;;;;18.23;15.08;;;26.80;64.30;;;;;;1794674;78;21140;-87
2023/02/16 13:35:29;;;;;;;19.42;15.15;;;26.70;64.50;;;;;;1769564;79;21152;-87
2023/02/16 13:38:39;;;;;;;19.23;14.50;;;26.70;64.60;;;;;;1757764;80;21175;-87
2023/02/16 13:41:13;;;;;;;20.55;14.73;;;26.70;64.90;;;;;;1765123;80;21678;-87
2023/02/16 13:43:54;;;;;;;18.77;14.23;;;26.70;65.10;;;;;;1759199;80;21194;-86
2023/02/16 13:46:49;;;;;;;19.55;14.63;;;26.60;65.00;;;;;;1754178;80;21944;-87
2023/02/16 13:49:45;;;;;;;19.25;14.30;;;26.60;65.00;;;;;;1783617;78;21217;-87
2023/02/16 13:52:34;;;;;;;19.35;13.93;;;26.60;65.20;;;;;;1792391;78;21239;-87
2023/02/16 13:55:10;;;;;;;17.75;15.03;;;26.50;65.40;;;;;;1724952;81;21821;-87
2023/02/16 13:58:00;;;;;;;18.67;14.75;;;26.50;88.50;;;;;;1792009;78;21150;-86
2023/02/16 14:00:41;;;;;;;20.72;16.05;;;26.60;82.00;;;;;;1794471;78;21163;-87
2023/02/16 14:03:19;;;;;;;19.82;14.47;;;;;;;;;;1729464;81;21251;-86
2023/02/16 14:05:52;;;;;;;21.12;15.88;;;;;;;;;;1796566;78;21183;-87
2023/02/16 14:08:28;;;;;;;20.27;15.70;;;26.70;97.30;;;;;;1797007;78;21564;-86
2023/02/16 14:11:20;;;;;;;22.95;16.65;;;26.50;97.80;;;;;;1790559;78;21115;-86
2023/02/16 14:13:53;;;;;;;17.70;15.00;;;;;;;;;;1753291;78;21289;-84
2023/02/16 14:16:26;;;;;;;18.77;15.13;;;;;;;;;;1783193;78;21174;-86
2023/02/16 14:19:04;;;;;;;20.02;16.05;;;;;;;;;;1786379;78;21238;-85
2023/02/16 14:21:43;;;;;;;18.90;16.00;;;;;;;;;;1808912;78;21159;-85
2023/02/16 14:24:16;;;;;;;;;;;;;;;;;;1799346;78;21197;-86
2023/02/16 14:26:53;;;;;;;21.77;16.05;;;;;;;;;;1783051;78;20227;-85
2023/02/16 14:29:40;;;;;;;20.20;15.80;;;;;;;;;;1786545;78;21253;-86
2023/02/16 14:32:27;;;;;;;22.20;16.95;;;;;;;;;;1799398;78;21226;-86
2023/02/16 14:35:01;;;;;;;;;;;;;;;;;;1762296;80;21094;-86
2023/02/16 14:37:38;;;;;;;29.45;18.00;;;;;;;;;;1752551;80;20214;-85
2023/02/16 14:40:18;;;;;;;24.85;17.55;;;;;;;;;;1756228;80;21255;-85
2023/02/16 14:42:58;;;;;;;22.25;17.48;;;;;;;;;;1789419;78;21102;-85
2023/02/16 14:45:57;;;;;;;20.90;17.37;;;;;;;;;;1799617;78;21144;-86
2023/02/16 14:49:02;;;;;;;21.30;18.07;;;26.10;99.90;;;;;;1800934;78;21357;-86